createdAt,value
2022-08-25T00:01:47.834Z,22.10
2022-08-25T00:04:16.118Z,22.10
2022-08-25T00:06:48.482Z,22.10
2022-08-25T00:09:18.038Z,22.10
2022-08-25T00:11:49.259Z,22.10
2022-08-25T00:14:28.660Z,22.00
2022-08-25T00:16:56.215Z,22.10
2022-08-25T00:19:27.543Z,22.00
2022-08-25T00:21:56.028Z,21.90
2022-08-25T00:24:24.510Z,21.80
2022-08-25T00:26:54.947Z,21.80
2022-08-25T00:29:22.889Z,21.70
2022-08-25T00:31:49.661Z,21.80
2022-08-25T00:34:30.273Z,21.70
2022-08-25T00:36:57.236Z,21.70
2022-08-25T00:39:24.914Z,21.70
2022-08-25T00:41:56.567Z,21.70
2022-08-25T00:44:27.211Z,21.70
2022-08-25T00:46:58.711Z,21.70
2022-08-25T00:49:44.745Z,21.70
2022-08-25T00:54:56.230Z,21.60
2022-08-25T00:57:54.347Z,21.60
2022-08-25T01:00:23.826Z,21.70
2022-08-25T01:02:50.757Z,21.60
2022-08-25T01:05:19.278Z,21.60
2022-08-25T01:07:50.193Z,21.60
2022-08-25T01:10:19.068Z,21.60
2022-08-25T01:12:52.723Z,21.60
2022-08-25T01:15:21.670Z,21.40
2022-08-25T01:17:57.622Z,21.30
2022-08-25T01:20:31.230Z,21.30
2022-08-25T01:22:59.411Z,21.20
2022-08-25T01:26:05.928Z,21.20
2022-08-25T01:28:32.779Z,21.20
2022-08-25T01:31:00.203Z,21.10
2022-08-25T01:33:27.044Z,21.10
2022-08-25T01:35:56.726Z,21.00
2022-08-25T01:38:26.147Z,21.00
2022-08-25T01:40:53.034Z,20.90
2022-08-25T01:43:35.854Z,20.90
2022-08-25T01:46:02.725Z,20.90
2022-08-25T01:48:29.712Z,20.80
2022-08-25T01:50:56.453Z,20.70
2022-08-25T01:53:28.484Z,20.70
2022-08-25T01:56:01.912Z,20.70
2022-08-25T01:58:32.486Z,20.70
2022-08-25T02:01:04.644Z,20.70
2022-08-25T02:03:31.660Z,20.70
2022-08-25T02:06:04.187Z,20.70
2022-08-25T02:08:34.131Z,20.70
2022-08-25T02:11:01.197Z,20.60
2022-08-25T02:13:31.655Z,20.60
2022-08-25T02:16:00.979Z,20.60
2022-08-25T02:18:27.733Z,20.50
2022-08-25T02:20:54.532Z,20.50
2022-08-25T02:23:21.473Z,20.40
2022-08-25T02:25:48.190Z,20.40
2022-08-25T02:28:15.023Z,20.30
2022-08-25T02:30:42.738Z,20.30
2022-08-25T02:33:10.124Z,20.30
2022-08-25T02:35:37.355Z,20.30
2022-08-25T02:38:05.019Z,20.20
2022-08-25T02:40:31.988Z,20.20
2022-08-25T02:42:58.701Z,20.20
2022-08-25T02:45:25.495Z,20.20
2022-08-25T02:47:52.730Z,20.10
2022-08-25T02:50:19.594Z,20.10
2022-08-25T02:52:50.476Z,20.10
2022-08-25T02:55:18.754Z,20.10
2022-08-25T02:57:45.507Z,20.10
2022-08-25T03:00:16.771Z,20.10
2022-08-25T03:02:44.661Z,20.00
2022-08-25T03:05:14.129Z,19.90
2022-08-25T03:07:41.520Z,19.90
2022-08-25T03:12:41.494Z,19.70
2022-08-25T03:15:13.163Z,19.70
2022-08-25T03:17:45.474Z,19.70
2022-08-25T03:20:15.470Z,19.60
2022-08-25T03:22:42.662Z,19.60
2022-08-25T03:25:28.882Z,19.60
2022-08-25T03:27:55.646Z,19.50
2022-08-25T03:30:22.426Z,19.50
2022-08-25T03:32:49.226Z,19.50
2022-08-25T03:35:16.024Z,19.40
2022-08-25T03:37:47.648Z,19.40
2022-08-25T03:40:19.437Z,19.30
2022-08-25T03:42:46.742Z,19.30
2022-08-25T03:45:16.443Z,19.30
2022-08-25T03:47:49.478Z,19.40
2022-08-25T03:50:19.200Z,19.30
2022-08-25T03:52:51.558Z,19.30
2022-08-25T03:55:20.852Z,19.30
2022-08-25T03:57:47.678Z,19.40
2022-08-25T04:00:17.132Z,19.40
2022-08-25T04:02:43.864Z,19.50
2022-08-25T04:05:13.104Z,19.50
2022-08-25T04:07:42.663Z,19.50
2022-08-25T04:10:10.595Z,19.40
2022-08-25T04:12:37.649Z,19.40
2022-08-25T04:15:06.198Z,19.40
2022-08-25T04:17:32.965Z,19.40
2022-08-25T04:20:01.774Z,19.40
2022-08-25T04:22:28.860Z,19.50
2022-08-25T04:24:58.207Z,19.50
2022-08-25T04:27:25.042Z,19.40
2022-08-25T04:29:54.716Z,19.40
2022-08-25T04:32:21.593Z,19.50
2022-08-25T04:34:49.167Z,19.40
2022-08-25T04:37:18.190Z,19.30
2022-08-25T04:39:47.201Z,19.20
2022-08-25T04:42:13.941Z,19.20
2022-08-25T04:44:41.690Z,19.10
2022-08-25T04:47:11.031Z,19.20
2022-08-25T04:49:37.793Z,19.30
2022-08-25T04:52:04.737Z,19.30
2022-08-25T04:54:40.366Z,19.30
2022-08-25T04:57:07.115Z,19.20
2022-08-25T04:59:33.861Z,19.10
2022-08-25T05:02:03.200Z,19.10
2022-08-25T05:04:31.119Z,19.10
2022-08-25T05:06:58.695Z,19.10
2022-08-25T05:09:28.491Z,19.10
2022-08-25T05:11:59.201Z,19.10
2022-08-25T05:14:28.403Z,19.30
2022-08-25T05:16:58.585Z,19.20
2022-08-25T05:19:28.211Z,19.30
2022-08-25T05:21:57.924Z,19.30
2022-08-25T05:24:25.521Z,19.40
2022-08-25T05:26:52.267Z,19.50
2022-08-25T05:31:51.161Z,19.60
2022-08-25T05:34:18.979Z,19.70
2022-08-25T05:36:46.237Z,19.70
2022-08-25T05:39:17.926Z,19.70
2022-08-25T05:41:44.664Z,19.80
2022-08-25T05:44:12.682Z,19.80
2022-08-25T05:46:39.521Z,19.90
2022-08-25T05:49:06.596Z,20.00
2022-08-25T05:51:34.041Z,20.10
2022-08-25T05:54:00.899Z,20.10
2022-08-25T05:56:27.640Z,20.10
2022-08-25T05:58:54.389Z,20.30
2022-08-25T06:01:46.456Z,20.30
2022-08-25T06:04:17.913Z,20.40
2022-08-25T06:06:44.853Z,20.50
2022-08-25T06:09:14.274Z,20.60
2022-08-25T06:11:41.417Z,20.80
2022-08-25T06:14:10.270Z,20.80
2022-08-25T06:16:40.472Z,20.90
2022-08-25T06:19:09.088Z,21.00
2022-08-25T06:21:39.008Z,21.10
2022-08-25T06:24:15.167Z,21.00
2022-08-25T06:26:42.296Z,21.10
2022-08-25T06:29:09.024Z,21.40
2022-08-25T06:31:35.940Z,21.40
2022-08-25T06:34:06.075Z,21.50
2022-08-25T06:36:33.235Z,21.60
2022-08-25T06:39:07.000Z,21.70
2022-08-25T06:41:36.689Z,21.70
2022-08-25T06:44:05.540Z,21.60
2022-08-25T06:46:36.503Z,21.50
2022-08-25T06:49:10.077Z,21.60
2022-08-25T06:51:36.867Z,21.80
2022-08-25T06:54:06.976Z,21.90
2022-08-25T06:56:34.454Z,21.80
2022-08-25T06:59:03.124Z,21.80
2022-08-25T07:01:31.807Z,21.90
2022-08-25T07:06:29.446Z,22.20
2022-08-25T07:08:59.054Z,22.20
2022-08-25T07:21:21.702Z,22.80
2022-08-25T07:29:10.226Z,23.00
2022-08-25T07:31:37.436Z,23.20
2022-08-25T07:34:23.327Z,23.30
2022-08-25T07:36:50.102Z,23.30
2022-08-25T07:39:21.897Z,23.40
2022-08-25T07:41:52.232Z,23.40
2022-08-25T07:44:22.932Z,23.50
2022-08-25T07:47:05.259Z,23.70
2022-08-25T07:49:35.926Z,23.80
2022-08-25T07:52:09.026Z,23.90
2022-08-25T07:54:37.876Z,24.20
2022-08-25T07:59:39.717Z,24.20
2022-08-25T08:02:09.309Z,24.40
2022-08-25T08:04:45.362Z,24.40
2022-08-25T08:07:12.498Z,24.50
2022-08-25T08:09:39.231Z,24.70
2022-08-25T08:12:08.889Z,24.90
2022-08-25T08:14:35.689Z,25.00
2022-08-25T08:17:10.713Z,25.20
2022-08-25T08:19:39.859Z,25.20
2022-08-25T08:22:11.581Z,25.40
2022-08-25T08:24:44.864Z,25.40
2022-08-25T08:29:54.338Z,25.40
2022-08-25T08:32:23.154Z,25.60
2022-08-25T08:35:00.643Z,25.60
2022-08-25T08:37:28.064Z,25.70
2022-08-25T08:43:03.969Z,25.90
2022-08-25T08:45:40.281Z,26.10
2022-08-25T08:48:25.623Z,26.20
2022-08-25T08:51:09.741Z,26.20
2022-08-25T08:53:57.225Z,26.30
2022-08-25T08:56:30.674Z,26.40
2022-08-25T08:59:13.838Z,26.60
2022-08-25T09:02:14.467Z,26.80
2022-08-25T09:05:09.445Z,26.90
2022-08-25T09:07:48.344Z,27.10
2022-08-25T09:10:21.648Z,27.30
2022-08-25T09:13:15.509Z,27.40
2022-08-25T09:16:20.597Z,27.50
2022-08-25T09:19:33.047Z,27.50
2022-08-25T09:22:35.813Z,27.60
2022-08-25T09:25:29.472Z,27.80
2022-08-25T09:28:27.722Z,27.90
2022-08-25T09:31:16.257Z,28.10
2022-08-25T09:33:47.710Z,28.30
2022-08-25T09:36:16.895Z,28.50
2022-08-25T09:38:46.701Z,28.60
2022-08-25T09:43:56.436Z,28.70
2022-08-25T09:46:30.109Z,28.90
2022-08-25T09:51:29.246Z,28.90
2022-08-25T09:53:59.995Z,29.10
2022-08-25T09:56:31.236Z,29.30
2022-08-25T09:59:34.984Z,29.60
2022-08-25T10:02:25.811Z,29.70
2022-08-25T10:04:55.745Z,29.80
2022-08-25T10:07:51.941Z,29.80
2022-08-25T10:10:32.967Z,29.80
2022-08-25T10:13:03.516Z,29.60
2022-08-25T10:15:35.348Z,30.00
2022-08-25T10:18:21.032Z,30.10
2022-08-25T10:21:07.517Z,30.20
2022-08-25T10:23:38.756Z,30.20
2022-08-25T10:26:18.245Z,30.20
2022-08-25T10:28:59.143Z,30.40
2022-08-25T10:31:35.812Z,30.40
2022-08-25T10:34:20.806Z,30.60
2022-08-25T10:36:57.538Z,30.80
2022-08-25T10:39:40.773Z,30.80
2022-08-25T10:42:32.318Z,30.80
2022-08-25T10:45:43.667Z,30.80
2022-08-25T10:48:29.397Z,30.90
2022-08-25T10:51:03.326Z,30.90
2022-08-25T10:53:39.184Z,30.70
2022-08-25T10:56:15.035Z,30.50
2022-08-25T10:59:04.617Z,30.40
2022-08-25T11:02:05.396Z,30.40
2022-08-25T11:04:45.084Z,30.70
2022-08-25T11:07:33.386Z,30.90
2022-08-25T11:10:13.624Z,31.10
2022-08-25T11:12:58.091Z,31.30
2022-08-25T11:16:15.441Z,31.40
2022-08-25T11:18:49.304Z,31.50
2022-08-25T11:21:34.800Z,31.40
2022-08-25T11:24:14.712Z,31.20
2022-08-25T11:26:43.574Z,31.30
2022-08-25T11:29:16.010Z,31.20
2022-08-25T11:31:50.754Z,31.10
2022-08-25T11:34:21.538Z,31.10
2022-08-25T11:37:01.271Z,31.00
2022-08-25T11:39:40.295Z,31.00
2022-08-25T11:42:31.226Z,30.90
2022-08-25T11:45:43.624Z,30.80
2022-08-25T11:48:30.499Z,30.50
2022-08-25T11:51:07.847Z,30.40
2022-08-25T11:58:51.594Z,30.60
2022-08-25T12:01:43.506Z,30.20
2022-08-25T12:04:34.155Z,30.30
2022-08-25T12:07:14.587Z,30.00
2022-08-25T12:09:50.446Z,30.00
2022-08-25T12:12:39.748Z,30.20
2022-08-25T12:16:01.593Z,30.40
2022-08-25T12:18:32.619Z,30.60
2022-08-25T12:21:02.507Z,30.70
2022-08-25T12:23:29.974Z,30.90
2022-08-25T12:26:04.013Z,30.90
2022-08-25T12:29:02.451Z,30.80
2022-08-25T12:31:53.943Z,30.70
2022-08-25T12:34:38.267Z,30.60
2022-08-25T12:37:16.959Z,30.60
2022-08-25T12:39:46.311Z,30.70
2022-08-25T12:42:29.768Z,30.80
2022-08-25T12:45:14.918Z,30.90
2022-08-25T12:47:47.545Z,31.10
2022-08-25T12:50:29.350Z,31.30
2022-08-25T12:53:09.281Z,31.60
2022-08-25T12:55:41.743Z,31.60
2022-08-25T12:58:12.063Z,31.60
2022-08-25T13:00:59.083Z,31.60
2022-08-25T13:03:27.614Z,31.60
2022-08-25T13:06:22.016Z,31.70
2022-08-25T13:09:08.418Z,31.40
2022-08-25T13:11:46.394Z,31.40
2022-08-25T13:14:28.430Z,31.30
2022-08-25T13:16:57.610Z,31.20
2022-08-25T13:19:26.606Z,31.40
2022-08-25T13:21:54.591Z,31.50
2022-08-25T13:24:23.870Z,31.60
2022-08-25T13:26:59.269Z,31.60
2022-08-25T13:29:29.395Z,31.70
2022-08-25T13:32:09.211Z,31.70
2022-08-25T13:34:43.184Z,31.80
2022-08-25T13:37:31.283Z,31.70
2022-08-25T13:40:17.780Z,31.80
2022-08-25T13:42:54.681Z,31.90
2022-08-25T13:45:28.430Z,32.20
2022-08-25T13:47:57.001Z,32.20
2022-08-25T13:50:29.360Z,31.90
2022-08-25T13:53:00.006Z,31.80
2022-08-25T13:55:38.215Z,32.20
2022-08-25T13:58:45.419Z,32.50
2022-08-25T14:01:48.312Z,32.70
2022-08-25T14:04:21.327Z,32.90
2022-08-25T14:06:49.114Z,32.80
2022-08-25T14:09:18.668Z,32.60
2022-08-25T14:11:58.563Z,32.70
2022-08-25T14:14:25.256Z,32.80
2022-08-25T14:17:22.431Z,32.60
2022-08-25T14:19:57.277Z,32.50
2022-08-25T14:22:24.310Z,32.50
2022-08-25T14:24:53.582Z,33.20
2022-08-25T14:27:20.767Z,33.50
2022-08-25T14:29:51.005Z,33.10
2022-08-25T14:32:19.639Z,32.90
2022-08-25T14:34:49.603Z,33.20
2022-08-25T14:37:19.521Z,33.40
2022-08-25T14:39:46.682Z,33.30
2022-08-25T14:42:14.104Z,33.70
2022-08-25T16:02:20.593Z,34.10
2022-08-25T16:04:47.511Z,33.50
2022-08-25T16:07:14.435Z,32.70
2022-08-25T16:09:41.843Z,32.30
2022-08-25T16:12:10.896Z,32.30
2022-08-25T16:14:40.008Z,32.30
2022-08-25T16:17:07.016Z,32.20
2022-08-25T16:19:38.308Z,32.10
2022-08-25T16:22:08.970Z,31.90
2022-08-25T16:24:46.838Z,31.70
2022-08-25T16:27:16.337Z,31.60
2022-08-25T16:29:47.269Z,31.40
2022-08-25T16:32:16.562Z,31.30
2022-08-25T16:34:45.803Z,31.20
2022-08-25T16:37:14.374Z,31.20
2022-08-25T16:39:45.348Z,31.20
2022-08-25T16:42:12.382Z,31.10
2022-08-25T16:44:39.919Z,31.10
2022-08-25T16:47:08.941Z,31.10
2022-08-25T16:49:36.309Z,31.00
2022-08-25T16:52:24.632Z,31.00
2022-08-25T16:55:13.563Z,31.00
2022-08-25T16:57:43.625Z,30.90
2022-08-25T17:00:13.978Z,30.80
2022-08-25T17:02:42.214Z,30.80
2022-08-25T17:05:11.284Z,30.80
2022-08-25T17:07:38.559Z,30.80
2022-08-25T17:10:07.207Z,30.70
2022-08-25T17:12:39.548Z,30.70
2022-08-25T17:15:07.568Z,30.70
2022-08-25T17:17:39.046Z,30.80
2022-08-25T17:20:06.544Z,30.70
2022-08-25T17:32:31.395Z,30.90
2022-08-25T17:45:01.039Z,30.30
2022-08-25T17:47:28.068Z,30.20
2022-08-25T17:49:57.135Z,30.10
2022-08-25T17:52:26.100Z,30.10
2022-08-25T17:54:52.913Z,30.10
2022-08-25T17:57:20.940Z,30.10
2022-08-25T17:59:50.257Z,30.10
2022-08-25T18:02:16.910Z,30.00
2022-08-25T18:04:46.361Z,29.90
2022-08-25T18:07:13.807Z,29.90
2022-08-25T18:09:40.648Z,29.60
2022-08-25T18:12:08.276Z,29.60
2022-08-25T18:14:38.618Z,29.50
2022-08-25T18:17:05.624Z,29.40
2022-08-25T18:19:33.049Z,29.30
2022-08-25T18:22:04.209Z,29.30
2022-08-25T18:24:35.402Z,29.20
2022-08-25T18:27:04.933Z,29.10
2022-08-25T18:37:23.978Z,30.20
2022-08-25T18:40:09.370Z,28.60
2022-08-25T18:42:38.986Z,28.50
2022-08-25T18:45:09.334Z,28.30
2022-08-25T18:52:34.603Z,28.80
2022-08-25T18:55:04.109Z,28.10
2022-08-25T18:57:31.497Z,27.90
2022-08-25T19:02:28.830Z,27.70
2022-08-25T19:04:55.707Z,27.60
2022-08-25T19:07:23.171Z,27.60
2022-08-25T19:12:22.522Z,27.40
2022-08-25T19:14:52.082Z,27.40
2022-08-25T19:17:18.802Z,27.20
2022-08-25T19:19:53.983Z,27.10
2022-08-25T19:22:38.561Z,27.00
2022-08-25T19:25:08.029Z,26.90
2022-08-25T19:27:36.129Z,26.80
2022-08-25T19:30:06.617Z,26.80
2022-08-25T19:32:33.540Z,26.70
2022-08-25T19:37:29.560Z,26.50
2022-08-25T19:40:00.076Z,26.50
2022-08-25T19:42:36.771Z,26.40
2022-08-25T19:47:35.369Z,26.30
2022-08-25T19:50:02.186Z,26.10
2022-08-25T19:52:31.720Z,26.00
2022-08-25T19:55:03.770Z,25.90
2022-08-25T19:57:42.516Z,25.80
2022-08-25T20:00:18.136Z,25.80
2022-08-25T20:02:45.720Z,25.90
2022-08-25T20:05:14.047Z,25.80
2022-08-25T20:10:14.349Z,25.60
2022-08-25T20:12:41.401Z,25.50
2022-08-25T20:15:16.614Z,25.50
2022-08-25T20:17:43.688Z,25.50
2022-08-25T20:20:18.680Z,25.50
2022-08-25T20:22:46.327Z,25.40
2022-08-25T20:25:23.247Z,25.40
2022-08-25T20:27:53.648Z,25.40
2022-08-25T20:30:26.813Z,25.40
2022-08-25T20:32:55.824Z,25.30
2022-08-25T20:35:26.476Z,25.30
2022-08-25T20:38:00.369Z,25.30
2022-08-25T20:40:29.324Z,25.20
2022-08-25T20:42:58.501Z,25.10
2022-08-25T20:45:30.889Z,25.00
2022-08-25T20:48:00.207Z,25.00
2022-08-25T20:50:29.217Z,24.90
2022-08-25T20:52:58.233Z,24.90
2022-08-25T20:55:25.283Z,24.80
2022-08-25T20:57:53.427Z,24.80
2022-08-25T21:00:23.497Z,24.70
2022-08-25T21:02:52.243Z,24.60
2022-08-25T21:05:19.626Z,24.50
2022-08-25T21:07:46.445Z,24.40
2022-08-25T21:10:15.924Z,24.40
2022-08-25T21:12:45.190Z,24.40
2022-08-25T21:15:13.496Z,24.40
2022-08-25T21:17:48.460Z,24.30
2022-08-25T21:20:18.051Z,24.30
2022-08-25T21:22:44.777Z,24.30
2022-08-25T21:25:12.059Z,24.30
2022-08-25T21:27:41.404Z,24.20
2022-08-25T21:30:11.254Z,24.20
2022-08-25T21:32:40.646Z,24.10
2022-08-25T21:35:20.244Z,24.20
2022-08-25T21:37:47.039Z,24.20
2022-08-25T21:40:20.143Z,24.00
2022-08-25T21:42:49.445Z,24.00
2022-08-25T21:45:16.679Z,24.00
2022-08-25T21:50:24.794Z,23.90
2022-08-25T21:52:54.583Z,23.80
2022-08-25T21:55:21.690Z,23.80
2022-08-25T21:57:49.722Z,23.80
2022-08-25T22:00:21.417Z,23.80
2022-08-25T22:05:16.029Z,23.90
2022-08-25T22:07:45.518Z,23.80
2022-08-25T23:42:48.123Z,23.00
2022-08-25T23:45:19.973Z,23.10
2022-08-25T23:47:46.740Z,23.00
2022-08-25T23:50:16.482Z,23.00
2022-08-25T23:52:45.812Z,23.00
2022-08-25T23:55:12.613Z,22.90
2022-08-25T23:57:39.367Z,22.90
